sensor_id;sensor_type;location;lat;lon;timestamp;P1;durP1;ratioP1;P2;durP2;ratioP2
12760;SDS011;6444;49.742;6.114;2023-10-31T00:02:11;3.15;;;2.85;;
12760;SDS011;6444;49.742;6.114;2023-10-31T00:04:38;3.22;;;2.92;;
12760;SDS011;6444;49.742;6.114;2023-10-31T00:07:05;5.90;;;3.00;;
12760;SDS011;6444;49.742;6.114;2023-10-31T00:09:31;6.90;;;3.55;;
12760;SDS011;6444;49.742;6.114;2023-10-31T00:11:58;4.90;;;3.80;;
12760;SDS011;6444;49.742;6.114;2023-10-31T00:14:25;7.55;;;4.75;;
12760;SDS011;6444;49.742;6.114;2023-10-31T00:16:52;5.43;;;4.80;;
12760;SDS011;6444;49.742;6.114;2023-10-31T00:19:19;5.37;;;4.65;;
12760;SDS011;6444;49.742;6.114;2023-10-31T00:21:45;5.37;;;4.82;;
12760;SDS011;6444;49.742;6.114;2023-10-31T00:24:12;6.80;;;4.47;;
12760;SDS011;6444;49.742;6.114;2023-10-31T00:26:39;8.18;;;4.80;;
12760;SDS011;6444;49.742;6.114;2023-10-31T00:29:06;4.35;;;3.95;;
12760;SDS011;6444;49.742;6.114;2023-10-31T00:31:32;6.00;;;3.80;;
12760;SDS011;6444;49.742;6.114;2023-10-31T00:33:59;4.90;;;4.40;;
12760;SDS011;6444;49.742;6.114;2023-10-31T00:36:26;4.07;;;3.67;;
12760;SDS011;6444;49.742;6.114;2023-10-31T00:38:53;4.85;;;3.40;;
12760;SDS011;6444;49.742;6.114;2023-10-31T00:41:20;4.18;;;3.53;;
12760;SDS011;6444;49.742;6.114;2023-10-31T00:43:46;4.35;;;3.15;;
12760;SDS011;6444;49.742;6.114;2023-10-31T00:46:13;3.60;;;3.10;;
12760;SDS011;6444;49.742;6.114;2023-10-31T00:48:40;10.13;;;3.05;;
12760;SDS011;6444;49.742;6.114;2023-10-31T00:51:07;4.65;;;3.83;;
12760;SDS011;6444;49.742;6.114;2023-10-31T00:53:34;6.43;;;2.90;;
12760;SDS011;6444;49.742;6.114;2023-10-31T00:56:01;4.25;;;3.12;;
12760;SDS011;6444;49.742;6.114;2023-10-31T00:58:27;3.47;;;2.83;;
12760;SDS011;6444;49.742;6.114;2023-10-31T01:00:54;5.80;;;2.60;;
12760;SDS011;6444;49.742;6.114;2023-10-31T01:03:20;3.12;;;2.67;;
12760;SDS011;6444;49.742;6.114;2023-10-31T01:05:47;3.65;;;2.40;;
12760;SDS011;6444;49.742;6.114;2023-10-31T01:08:14;3.10;;;2.53;;
12760;SDS011;6444;49.742;6.114;2023-10-31T01:10:41;6.57;;;2.70;;
12760;SDS011;6444;49.742;6.114;2023-10-31T01:13:07;4.20;;;2.40;;
12760;SDS011;6444;49.742;6.114;2023-10-31T01:15:34;2.80;;;2.37;;
12760;SDS011;6444;49.742;6.114;2023-10-31T01:18:01;3.50;;;2.45;;
12760;SDS011;6444;49.742;6.114;2023-10-31T01:20:27;4.53;;;2.62;;
12760;SDS011;6444;49.742;6.114;2023-10-31T01:22:55;2.83;;;2.20;;
12760;SDS011;6444;49.742;6.114;2023-10-31T01:25:21;4.30;;;2.65;;
12760;SDS011;6444;49.742;6.114;2023-10-31T01:27:48;4.18;;;2.70;;
12760;SDS011;6444;49.742;6.114;2023-10-31T01:30:15;4.43;;;2.62;;
12760;SDS011;6444;49.742;6.114;2023-10-31T01:32:42;2.75;;;2.30;;
12760;SDS011;6444;49.742;6.114;2023-10-31T01:35:09;4.87;;;2.87;;
12760;SDS011;6444;49.742;6.114;2023-10-31T01:37:35;3.75;;;2.33;;
12760;SDS011;6444;49.742;6.114;2023-10-31T01:40:02;3.75;;;2.87;;
12760;SDS011;6444;49.742;6.114;2023-10-31T01:42:29;4.60;;;2.42;;
12760;SDS011;6444;49.742;6.114;2023-10-31T01:44:55;4.18;;;2.75;;
12760;SDS011;6444;49.742;6.114;2023-10-31T01:47:22;2.58;;;2.25;;
12760;SDS011;6444;49.742;6.114;2023-10-31T01:49:48;4.15;;;2.80;;
12760;SDS011;6444;49.742;6.114;2023-10-31T01:52:15;3.15;;;2.20;;
12760;SDS011;6444;49.742;6.114;2023-10-31T01:54:42;4.20;;;2.45;;
12760;SDS011;6444;49.742;6.114;2023-10-31T01:57:08;3.50;;;2.92;;
12760;SDS011;6444;49.742;6.114;2023-10-31T01:59:35;3.60;;;2.47;;
12760;SDS011;6444;49.742;6.114;2023-10-31T02:02:02;3.65;;;2.87;;
12760;SDS011;6444;49.742;6.114;2023-10-31T02:04:29;3.65;;;2.50;;
12760;SDS011;6444;49.742;6.114;2023-10-31T02:06:56;2.78;;;2.25;;
12760;SDS011;6444;49.742;6.114;2023-10-31T02:09:22;4.80;;;2.55;;
12760;SDS011;6444;49.742;6.114;2023-10-31T02:11:49;2.33;;;2.10;;
12760;SDS011;6444;49.742;6.114;2023-10-31T02:14:15;3.60;;;2.60;;
12760;SDS011;6444;49.742;6.114;2023-10-31T02:16:43;2.83;;;2.62;;
12760;SDS011;6444;49.742;6.114;2023-10-31T02:19:10;2.80;;;2.50;;
12760;SDS011;6444;49.742;6.114;2023-10-31T02:21:39;3.35;;;3.00;;
12760;SDS011;6444;49.742;6.114;2023-10-31T02:24:06;2.85;;;2.53;;
12760;SDS011;6444;49.742;6.114;2023-10-31T02:26:34;3.95;;;3.10;;
12760;SDS011;6444;49.742;6.114;2023-10-31T02:29:00;3.03;;;2.70;;
12760;SDS011;6444;49.742;6.114;2023-10-31T02:31:27;6.30;;;2.80;;
12760;SDS011;6444;49.742;6.114;2023-10-31T02:33:53;3.92;;;3.20;;
12760;SDS011;6444;49.742;6.114;2023-10-31T02:36:20;3.97;;;2.53;;
12760;SDS011;6444;49.742;6.114;2023-10-31T02:38:47;3.00;;;2.70;;
12760;SDS011;6444;49.742;6.114;2023-10-31T02:41:14;5.87;;;2.90;;
12760;SDS011;6444;49.742;6.114;2023-10-31T02:43:41;4.12;;;2.95;;
12760;SDS011;6444;49.742;6.114;2023-10-31T02:46:07;3.17;;;2.87;;
12760;SDS011;6444;49.742;6.114;2023-10-31T02:48:34;3.10;;;2.90;;
12760;SDS011;6444;49.742;6.114;2023-10-31T02:51:01;4.25;;;2.67;;
12760;SDS011;6444;49.742;6.114;2023-10-31T02:53:28;3.50;;;3.17;;
12760;SDS011;6444;49.742;6.114;2023-10-31T02:55:54;3.28;;;2.80;;
12760;SDS011;6444;49.742;6.114;2023-10-31T02:58:22;4.97;;;2.92;;
12760;SDS011;6444;49.742;6.114;2023-10-31T03:00:48;3.20;;;2.80;;
12760;SDS011;6444;49.742;6.114;2023-10-31T03:03:15;3.35;;;3.03;;
12760;SDS011;6444;49.742;6.114;2023-10-31T03:05:42;5.50;;;3.10;;
12760;SDS011;6444;49.742;6.114;2023-10-31T03:08:08;3.40;;;2.67;;
12760;SDS011;6444;49.742;6.114;2023-10-31T03:10:37;3.65;;;3.00;;
12760;SDS011;6444;49.742;6.114;2023-10-31T03:13:02;4.72;;;3.00;;
12760;SDS011;6444;49.742;6.114;2023-10-31T03:15:29;6.87;;;2.87;;
12760;SDS011;6444;49.742;6.114;2023-10-31T03:17:55;4.28;;;2.80;;
12760;SDS011;6444;49.742;6.114;2023-10-31T03:20:22;3.17;;;2.75;;
12760;SDS011;6444;49.742;6.114;2023-10-31T03:22:49;3.12;;;2.75;;
12760;SDS011;6444;49.742;6.114;2023-10-31T03:25:16;5.15;;;2.80;;
12760;SDS011;6444;49.742;6.114;2023-10-31T03:27:43;3.85;;;2.58;;
12760;SDS011;6444;49.742;6.114;2023-10-31T03:30:09;3.42;;;2.78;;
12760;SDS011;6444;49.742;6.114;2023-10-31T03:32:36;4.85;;;3.00;;
12760;SDS011;6444;49.742;6.114;2023-10-31T03:35:03;4.07;;;3.08;;
12760;SDS011;6444;49.742;6.114;2023-10-31T03:37:30;3.80;;;2.33;;
12760;SDS011;6444;49.742;6.114;2023-10-31T03:39:57;2.70;;;2.40;;
12760;SDS011;6444;49.742;6.114;2023-10-31T03:42:24;2.87;;;2.47;;
12760;SDS011;6444;49.742;6.114;2023-10-31T03:44:51;2.97;;;2.72;;
12760;SDS011;6444;49.742;6.114;2023-10-31T03:47:18;5.65;;;3.10;;
12760;SDS011;6444;49.742;6.114;2023-10-31T03:49:44;3.40;;;2.70;;
12760;SDS011;6444;49.742;6.114;2023-10-31T03:52:11;3.05;;;2.78;;
12760;SDS011;6444;49.742;6.114;2023-10-31T03:54:37;5.20;;;3.25;;
12760;SDS011;6444;49.742;6.114;2023-10-31T03:57:04;3.95;;;2.90;;
12760;SDS011;6444;49.742;6.114;2023-10-31T03:59:31;8.10;;;2.92;;
12760;SDS011;6444;49.742;6.114;2023-10-31T04:01:58;3.70;;;3.12;;
12760;SDS011;6444;49.742;6.114;2023-10-31T04:04:25;4.22;;;2.95;;
12760;SDS011;6444;49.742;6.114;2023-10-31T04:06:52;7.05;;;3.20;;
12760;SDS011;6444;49.742;6.114;2023-10-31T04:09:19;5.90;;;3.12;;
12760;SDS011;6444;49.742;6.114;2023-10-31T04:11:45;4.65;;;3.20;;
12760;SDS011;6444;49.742;6.114;2023-10-31T04:14:12;9.38;;;3.72;;
12760;SDS011;6444;49.742;6.114;2023-10-31T04:16:39;8.90;;;3.60;;
12760;SDS011;6444;49.742;6.114;2023-10-31T04:19:06;6.68;;;3.60;;
12760;SDS011;6444;49.742;6.114;2023-10-31T04:21:33;9.05;;;3.80;;
12760;SDS011;6444;49.742;6.114;2023-10-31T04:23:59;8.43;;;3.28;;
12760;SDS011;6444;49.742;6.114;2023-10-31T04:26:26;9.15;;;4.03;;
12760;SDS011;6444;49.742;6.114;2023-10-31T04:28:53;6.40;;;3.60;;
12760;SDS011;6444;49.742;6.114;2023-10-31T04:31:20;8.88;;;3.72;;
12760;SDS011;6444;49.742;6.114;2023-10-31T04:33:47;5.93;;;3.25;;
12760;SDS011;6444;49.742;6.114;2023-10-31T04:36:13;6.03;;;3.40;;
12760;SDS011;6444;49.742;6.114;2023-10-31T04:38:40;8.73;;;3.40;;
12760;SDS011;6444;49.742;6.114;2023-10-31T04:41:07;6.00;;;3.37;;
12760;SDS011;6444;49.742;6.114;2023-10-31T04:43:33;4.35;;;3.10;;
12760;SDS011;6444;49.742;6.114;2023-10-31T04:46:00;7.12;;;3.90;;
12760;SDS011;6444;49.742;6.114;2023-10-31T04:48:26;5.57;;;3.65;;
12760;SDS011;6444;49.742;6.114;2023-10-31T04:50:53;4.55;;;3.33;;
12760;SDS011;6444;49.742;6.114;2023-10-31T04:53:20;5.18;;;2.85;;
12760;SDS011;6444;49.742;6.114;2023-10-31T04:55:46;3.83;;;2.80;;
12760;SDS011;6444;49.742;6.114;2023-10-31T04:58:14;3.30;;;3.00;;
12760;SDS011;6444;49.742;6.114;2023-10-31T05:00:40;2.97;;;2.45;;
12760;SDS011;6444;49.742;6.114;2023-10-31T05:03:07;5.90;;;2.80;;
12760;SDS011;6444;49.742;6.114;2023-10-31T05:05:33;8.23;;;2.83;;
12760;SDS011;6444;49.742;6.114;2023-10-31T05:08:03;4.28;;;3.30;;
12760;SDS011;6444;49.742;6.114;2023-10-31T05:10:27;3.67;;;2.78;;
12760;SDS011;6444;49.742;6.114;2023-10-31T05:12:53;3.97;;;2.83;;
12760;SDS011;6444;49.742;6.114;2023-10-31T05:15:20;2.90;;;2.40;;
12760;SDS011;6444;49.742;6.114;2023-10-31T05:17:47;3.60;;;2.50;;
12760;SDS011;6444;49.742;6.114;2023-10-31T05:20:13;2.95;;;2.45;;
12760;SDS011;6444;49.742;6.114;2023-10-31T05:22:42;3.55;;;2.50;;
12760;SDS011;6444;49.742;6.114;2023-10-31T05:25:10;4.30;;;2.70;;
12760;SDS011;6444;49.742;6.114;2023-10-31T05:27:36;4.07;;;2.53;;
12760;SDS011;6444;49.742;6.114;2023-10-31T05:30:03;4.12;;;2.50;;
12760;SDS011;6444;49.742;6.114;2023-10-31T05:32:30;4.05;;;2.50;;
12760;SDS011;6444;49.742;6.114;2023-10-31T05:34:56;3.00;;;2.60;;
12760;SDS011;6444;49.742;6.114;2023-10-31T05:37:23;3.03;;;2.22;;
12760;SDS011;6444;49.742;6.114;2023-10-31T05:39:50;2.75;;;1.80;;
12760;SDS011;6444;49.742;6.114;2023-10-31T05:42:16;3.37;;;2.15;;
12760;SDS011;6444;49.742;6.114;2023-10-31T05:44:43;3.20;;;2.10;;
12760;SDS011;6444;49.742;6.114;2023-10-31T05:47:10;11.10;;;2.20;;
12760;SDS011;6444;49.742;6.114;2023-10-31T05:49:36;2.20;;;1.98;;
12760;SDS011;6444;49.742;6.114;2023-10-31T05:52:03;2.55;;;1.90;;
12760;SDS011;6444;49.742;6.114;2023-10-31T05:54:29;5.12;;;2.00;;
12760;SDS011;6444;49.742;6.114;2023-10-31T05:56:56;2.72;;;1.77;;
12760;SDS011;6444;49.742;6.114;2023-10-31T05:59:23;2.85;;;2.03;;
12760;SDS011;6444;49.742;6.114;2023-10-31T06:01:49;3.65;;;2.25;;
12760;SDS011;6444;49.742;6.114;2023-10-31T06:04:16;2.67;;;1.65;;
12760;SDS011;6444;49.742;6.114;2023-10-31T06:06:43;2.03;;;1.60;;
12760;SDS011;6444;49.742;6.114;2023-10-31T06:09:09;2.40;;;1.90;;
12760;SDS011;6444;49.742;6.114;2023-10-31T06:11:36;4.47;;;2.00;;
12760;SDS011;6444;49.742;6.114;2023-10-31T06:14:02;3.03;;;2.03;;
12760;SDS011;6444;49.742;6.114;2023-10-31T06:16:30;4.40;;;2.72;;
12760;SDS011;6444;49.742;6.114;2023-10-31T06:18:56;4.22;;;3.17;;
12760;SDS011;6444;49.742;6.114;2023-10-31T06:21:23;6.37;;;3.28;;
12760;SDS011;6444;49.742;6.114;2023-10-31T06:23:50;6.20;;;2.20;;
12760;SDS011;6444;49.742;6.114;2023-10-31T06:26:17;2.65;;;2.33;;
12760;SDS011;6444;49.742;6.114;2023-10-31T06:28:44;4.35;;;1.90;;
12760;SDS011;6444;49.742;6.114;2023-10-31T06:31:10;4.10;;;2.50;;
12760;SDS011;6444;49.742;6.114;2023-10-31T06:33:37;4.57;;;2.10;;
12760;SDS011;6444;49.742;6.114;2023-10-31T06:36:04;3.30;;;1.92;;
12760;SDS011;6444;49.742;6.114;2023-10-31T06:38:30;6.75;;;2.05;;
12760;SDS011;6444;49.742;6.114;2023-10-31T06:40:57;3.17;;;1.95;;
12760;SDS011;6444;49.742;6.114;2023-10-31T06:43:24;2.25;;;2.05;;
12760;SDS011;6444;49.742;6.114;2023-10-31T06:45:50;3.25;;;2.40;;
12760;SDS011;6444;49.742;6.114;2023-10-31T06:48:18;4.82;;;2.70;;
12760;SDS011;6444;49.742;6.114;2023-10-31T06:50:44;5.43;;;3.00;;
12760;SDS011;6444;49.742;6.114;2023-10-31T06:53:11;4.57;;;2.60;;
12760;SDS011;6444;49.742;6.114;2023-10-31T06:55:37;5.62;;;3.00;;
12760;SDS011;6444;49.742;6.114;2023-10-31T06:58:04;3.97;;;2.50;;
12760;SDS011;6444;49.742;6.114;2023-10-31T07:00:31;7.10;;;4.25;;
12760;SDS011;6444;49.742;6.114;2023-10-31T07:02:57;3.47;;;2.70;;
12760;SDS011;6444;49.742;6.114;2023-10-31T07:05:24;3.65;;;2.85;;
12760;SDS011;6444;49.742;6.114;2023-10-31T07:07:52;3.92;;;2.33;;
12760;SDS011;6444;49.742;6.114;2023-10-31T07:10:19;3.70;;;2.30;;
12760;SDS011;6444;49.742;6.114;2023-10-31T07:12:48;3.83;;;2.50;;
12760;SDS011;6444;49.742;6.114;2023-10-31T07:15:15;4.35;;;2.37;;
12760;SDS011;6444;49.742;6.114;2023-10-31T07:17:41;7.12;;;3.03;;
12760;SDS011;6444;49.742;6.114;2023-10-31T07:20:08;8.15;;;3.15;;
12760;SDS011;6444;49.742;6.114;2023-10-31T07:22:35;6.40;;;3.83;;
12760;SDS011;6444;49.742;6.114;2023-10-31T07:25:02;5.90;;;2.95;;
12760;SDS011;6444;49.742;6.114;2023-10-31T07:27:29;4.00;;;2.22;;
12760;SDS011;6444;49.742;6.114;2023-10-31T07:29:55;4.12;;;2.35;;
12760;SDS011;6444;49.742;6.114;2023-10-31T07:32:23;5.12;;;2.25;;
12760;SDS011;6444;49.742;6.114;2023-10-31T07:34:49;5.18;;;2.25;;
12760;SDS011;6444;49.742;6.114;2023-10-31T07:37:16;4.68;;;2.85;;
12760;SDS011;6444;49.742;6.114;2023-10-31T07:39:43;4.97;;;2.50;;
12760;SDS011;6444;49.742;6.114;2023-10-31T07:42:09;4.25;;;2.10;;
12760;SDS011;6444;49.742;6.114;2023-10-31T07:44:36;5.25;;;2.58;;
12760;SDS011;6444;49.742;6.114;2023-10-31T07:47:02;4.15;;;2.12;;
12760;SDS011;6444;49.742;6.114;2023-10-31T07:49:29;6.87;;;2.83;;
12760;SDS011;6444;49.742;6.114;2023-10-31T07:51:56;3.70;;;2.70;;
12760;SDS011;6444;49.742;6.114;2023-10-31T07:54:22;4.90;;;2.35;;
12760;SDS011;6444;49.742;6.114;2023-10-31T07:56:49;4.95;;;2.30;;
12760;SDS011;6444;49.742;6.114;2023-10-31T07:59:16;4.10;;;2.40;;
12760;SDS011;6444;49.742;6.114;2023-10-31T08:01:42;5.57;;;2.30;;
12760;SDS011;6444;49.742;6.114;2023-10-31T08:04:09;4.65;;;2.58;;
12760;SDS011;6444;49.742;6.114;2023-10-31T08:06:36;6.45;;;2.78;;
12760;SDS011;6444;49.742;6.114;2023-10-31T08:09:02;5.12;;;3.28;;
12760;SDS011;6444;49.742;6.114;2023-10-31T08:11:29;5.55;;;3.25;;
12760;SDS011;6444;49.742;6.114;2023-10-31T08:13:55;5.53;;;3.60;;
12760;SDS011;6444;49.742;6.114;2023-10-31T08:16:22;6.53;;;3.47;;
12760;SDS011;6444;49.742;6.114;2023-10-31T08:18:49;5.95;;;3.75;;
12760;SDS011;6444;49.742;6.114;2023-10-31T08:21:15;9.63;;;3.53;;
12760;SDS011;6444;49.742;6.114;2023-10-31T08:23:43;12.82;;;4.22;;
12760;SDS011;6444;49.742;6.114;2023-10-31T08:26:09;6.05;;;3.72;;
12760;SDS011;6444;49.742;6.114;2023-10-31T08:28:36;10.70;;;3.65;;
12760;SDS011;6444;49.742;6.114;2023-10-31T08:31:03;5.70;;;3.72;;
12760;SDS011;6444;49.742;6.114;2023-10-31T08:33:29;8.38;;;3.80;;
12760;SDS011;6444;49.742;6.114;2023-10-31T08:35:56;7.55;;;3.65;;
12760;SDS011;6444;49.742;6.114;2023-10-31T08:38:22;6.35;;;3.75;;
12760;SDS011;6444;49.742;6.114;2023-10-31T08:40:49;6.93;;;3.62;;
12760;SDS011;6444;49.742;6.114;2023-10-31T08:43:16;7.20;;;3.40;;
12760;SDS011;6444;49.742;6.114;2023-10-31T08:45:42;11.20;;;3.53;;
12760;SDS011;6444;49.742;6.114;2023-10-31T08:48:09;6.90;;;3.10;;
12760;SDS011;6444;49.742;6.114;2023-10-31T08:50:36;6.05;;;2.90;;
12760;SDS011;6444;49.742;6.114;2023-10-31T08:53:02;5.12;;;2.90;;
12760;SDS011;6444;49.742;6.114;2023-10-31T08:55:29;7.97;;;2.75;;
12760;SDS011;6444;49.742;6.114;2023-10-31T08:57:55;6.80;;;2.83;;
12760;SDS011;6444;49.742;6.114;2023-10-31T09:00:22;5.93;;;2.72;;
12760;SDS011;6444;49.742;6.114;2023-10-31T09:02:49;4.45;;;2.15;;
12760;SDS011;6444;49.742;6.114;2023-10-31T09:05:15;4.35;;;2.33;;
12760;SDS011;6444;49.742;6.114;2023-10-31T09:07:42;5.37;;;1.80;;
12760;SDS011;6444;49.742;6.114;2023-10-31T09:10:09;4.50;;;1.90;;
12760;SDS011;6444;49.742;6.114;2023-10-31T09:12:35;4.97;;;2.15;;
12760;SDS011;6444;49.742;6.114;2023-10-31T09:15:03;4.45;;;2.03;;
12760;SDS011;6444;49.742;6.114;2023-10-31T09:17:29;4.97;;;1.75;;
12760;SDS011;6444;49.742;6.114;2023-10-31T09:19:56;4.03;;;2.10;;
12760;SDS011;6444;49.742;6.114;2023-10-31T09:22:22;9.43;;;2.60;;
12760;SDS011;6444;49.742;6.114;2023-10-31T09:24:50;5.37;;;1.70;;
12760;SDS011;6444;49.742;6.114;2023-10-31T09:27:16;4.65;;;1.90;;
12760;SDS011;6444;49.742;6.114;2023-10-31T09:29:43;8.45;;;2.28;;
12760;SDS011;6444;49.742;6.114;2023-10-31T09:32:10;7.15;;;1.70;;
12760;SDS011;6444;49.742;6.114;2023-10-31T09:34:36;3.10;;;1.50;;
12760;SDS011;6444;49.742;6.114;2023-10-31T09:37:04;6.18;;;1.90;;
12760;SDS011;6444;49.742;6.114;2023-10-31T09:39:30;5.30;;;1.67;;
12760;SDS011;6444;49.742;6.114;2023-10-31T09:41:57;3.03;;;1.65;;
12760;SDS011;6444;49.742;6.114;2023-10-31T09:44:24;6.00;;;1.95;;
12760;SDS011;6444;49.742;6.114;2023-10-31T09:46:51;3.80;;;1.40;;
12760;SDS011;6444;49.742;6.114;2023-10-31T09:49:18;7.45;;;1.80;;
12760;SDS011;6444;49.742;6.114;2023-10-31T09:51:44;5.97;;;2.22;;
12760;SDS011;6444;49.742;6.114;2023-10-31T09:54:12;4.70;;;1.23;;
12760;SDS011;6444;49.742;6.114;2023-10-31T09:56:38;3.97;;;1.17;;
12760;SDS011;6444;49.742;6.114;2023-10-31T09:59:05;4.47;;;1.40;;
12760;SDS011;6444;49.742;6.114;2023-10-31T10:01:32;3.55;;;1.60;;
12760;SDS011;6444;49.742;6.114;2023-10-31T10:03:59;2.65;;;1.42;;
12760;SDS011;6444;49.742;6.114;2023-10-31T10:06:26;4.85;;;1.80;;
12760;SDS011;6444;49.742;6.114;2023-10-31T10:08:52;5.12;;;1.37;;
12760;SDS011;6444;49.742;6.114;2023-10-31T10:11:19;9.98;;;1.42;;
12760;SDS011;6444;49.742;6.114;2023-10-31T10:13:45;3.83;;;1.30;;
12760;SDS011;6444;49.742;6.114;2023-10-31T10:16:12;5.55;;;2.17;;
12760;SDS011;6444;49.742;6.114;2023-10-31T10:18:39;4.72;;;1.10;;
12760;SDS011;6444;49.742;6.114;2023-10-31T10:21:06;3.08;;;1.05;;
12760;SDS011;6444;49.742;6.114;2023-10-31T10:23:32;1.62;;;1.00;;
12760;SDS011;6444;49.742;6.114;2023-10-31T10:25:59;1.80;;;1.15;;
12760;SDS011;6444;49.742;6.114;2023-10-31T10:28:26;3.53;;;1.10;;
12760;SDS011;6444;49.742;6.114;2023-10-31T10:30:52;2.85;;;1.10;;
12760;SDS011;6444;49.742;6.114;2023-10-31T10:33:18;5.62;;;1.50;;
12760;SDS011;6444;49.742;6.114;2023-10-31T10:35:46;1.10;;;0.90;;
12760;SDS011;6444;49.742;6.114;2023-10-31T10:38:14;1.02;;;0.60;;
12760;SDS011;6444;49.742;6.114;2023-10-31T10:40:43;2.80;;;0.80;;
12760;SDS011;6444;49.742;6.114;2023-10-31T10:43:12;2.72;;;0.90;;
12760;SDS011;6444;49.742;6.114;2023-10-31T10:45:36;6.53;;;1.20;;
12760;SDS011;6444;49.742;6.114;2023-10-31T10:48:02;1.87;;;0.90;;
12760;SDS011;6444;49.742;6.114;2023-10-31T10:50:29;1.75;;;1.10;;
12760;SDS011;6444;49.742;6.114;2023-10-31T10:53:06;2.75;;;0.82;;
12760;SDS011;6444;49.742;6.114;2023-10-31T10:55:29;0.93;;;0.88;;
12760;SDS011;6444;49.742;6.114;2023-10-31T10:57:59;0.70;;;0.70;;
12760;SDS011;6444;49.742;6.114;2023-10-31T11:00:23;1.48;;;0.85;;
12760;SDS011;6444;49.742;6.114;2023-10-31T11:02:49;1.77;;;0.77;;
12760;SDS011;6444;49.742;6.114;2023-10-31T11:05:16;0.85;;;0.70;;
12760;SDS011;6444;49.742;6.114;2023-10-31T11:07:42;2.83;;;0.90;;
12760;SDS011;6444;49.742;6.114;2023-10-31T11:10:09;7.50;;;1.60;;
12760;SDS011;6444;49.742;6.114;2023-10-31T11:12:36;5.07;;;0.90;;
12760;SDS011;6444;49.742;6.114;2023-10-31T11:15:02;0.93;;;0.82;;
12760;SDS011;6444;49.742;6.114;2023-10-31T11:17:33;1.90;;;0.95;;
12760;SDS011;6444;49.742;6.114;2023-10-31T11:19:59;2.17;;;1.33;;
12760;SDS011;6444;49.742;6.114;2023-10-31T11:22:25;1.27;;;0.68;;
12760;SDS011;6444;49.742;6.114;2023-10-31T11:24:51;4.30;;;1.27;;
12760;SDS011;6444;49.742;6.114;2023-10-31T11:27:18;4.45;;;1.27;;
12760;SDS011;6444;49.742;6.114;2023-10-31T11:29:45;4.10;;;0.90;;
12760;SDS011;6444;49.742;6.114;2023-10-31T11:32:11;2.53;;;0.98;;
12760;SDS011;6444;49.742;6.114;2023-10-31T11:34:38;3.15;;;1.10;;
12760;SDS011;6444;49.742;6.114;2023-10-31T11:37:18;2.15;;;0.82;;
12760;SDS011;6444;49.742;6.114;2023-10-31T11:42:41;1.67;;;0.90;;
12760;SDS011;6444;49.742;6.114;2023-10-31T11:45:08;1.30;;;1.20;;
12760;SDS011;6444;49.742;6.114;2023-10-31T11:47:56;4.12;;;1.20;;
12760;SDS011;6444;49.742;6.114;2023-10-31T11:50:16;4.37;;;1.20;;
12760;SDS011;6444;49.742;6.114;2023-10-31T11:52:43;2.25;;;1.10;;
12760;SDS011;6444;49.742;6.114;2023-10-31T11:55:12;3.20;;;1.33;;
12760;SDS011;6444;49.742;6.114;2023-10-31T11:57:39;2.45;;;0.90;;
12760;SDS011;6444;49.742;6.114;2023-10-31T12:00:05;2.00;;;1.00;;
12760;SDS011;6444;49.742;6.114;2023-10-31T12:02:32;2.45;;;0.70;;
12760;SDS011;6444;49.742;6.114;2023-10-31T12:05:08;2.67;;;0.90;;
12760;SDS011;6444;49.742;6.114;2023-10-31T12:07:44;2.83;;;1.05;;
12760;SDS011;6444;49.742;6.114;2023-10-31T12:10:07;1.95;;;0.75;;
12760;SDS011;6444;49.742;6.114;2023-10-31T12:12:35;1.83;;;1.00;;
12760;SDS011;6444;49.742;6.114;2023-10-31T12:15:07;4.07;;;0.90;;
12760;SDS011;6444;49.742;6.114;2023-10-31T12:17:34;2.62;;;1.08;;
12760;SDS011;6444;49.742;6.114;2023-10-31T12:20:07;2.03;;;0.85;;
12760;SDS011;6444;49.742;6.114;2023-10-31T12:22:33;1.77;;;0.80;;
12760;SDS011;6444;49.742;6.114;2023-10-31T12:25:03;2.87;;;0.82;;
12760;SDS011;6444;49.742;6.114;2023-10-31T12:27:41;3.20;;;0.82;;
12760;SDS011;6444;49.742;6.114;2023-10-31T12:30:02;1.77;;;1.00;;
12760;SDS011;6444;49.742;6.114;2023-10-31T12:32:28;2.60;;;0.85;;
12760;SDS011;6444;49.742;6.114;2023-10-31T12:34:55;1.37;;;0.88;;
12760;SDS011;6444;49.742;6.114;2023-10-31T12:37:22;1.50;;;0.70;;
12760;SDS011;6444;49.742;6.114;2023-10-31T12:39:48;2.62;;;0.90;;
12760;SDS011;6444;49.742;6.114;2023-10-31T12:42:15;2.15;;;0.90;;
12760;SDS011;6444;49.742;6.114;2023-10-31T12:44:42;3.30;;;1.05;;
12760;SDS011;6444;49.742;6.114;2023-10-31T12:47:08;2.03;;;1.05;;
12760;SDS011;6444;49.742;6.114;2023-10-31T12:49:35;4.40;;;1.33;;
12760;SDS011;6444;49.742;6.114;2023-10-31T12:52:02;1.85;;;0.95;;
12760;SDS011;6444;49.742;6.114;2023-10-31T12:54:32;1.58;;;0.70;;
12760;SDS011;6444;49.742;6.114;2023-10-31T12:57:08;2.15;;;0.82;;
12760;SDS011;6444;49.742;6.114;2023-10-31T12:59:31;3.97;;;1.00;;
12760;SDS011;6444;49.742;6.114;2023-10-31T13:01:57;3.05;;;0.90;;
12760;SDS011;6444;49.742;6.114;2023-10-31T13:04:24;2.65;;;0.88;;
12760;SDS011;6444;49.742;6.114;2023-10-31T13:06:57;0.80;;;0.80;;
12760;SDS011;6444;49.742;6.114;2023-10-31T13:09:32;4.85;;;0.70;;
12760;SDS011;6444;49.742;6.114;2023-10-31T13:11:59;1.80;;;0.80;;
12760;SDS011;6444;49.742;6.114;2023-10-31T13:14:25;1.83;;;0.70;;
12760;SDS011;6444;49.742;6.114;2023-10-31T13:16:52;4.47;;;0.77;;
12760;SDS011;6444;49.742;6.114;2023-10-31T13:19:18;2.62;;;0.60;;
12760;SDS011;6444;49.742;6.114;2023-10-31T13:21:45;1.95;;;0.77;;
12760;SDS011;6444;49.742;6.114;2023-10-31T13:24:12;1.40;;;0.85;;
12760;SDS011;6444;49.742;6.114;2023-10-31T13:26:39;2.03;;;0.80;;
12760;SDS011;6444;49.742;6.114;2023-10-31T13:29:06;1.40;;;0.80;;
12760;SDS011;6444;49.742;6.114;2023-10-31T13:31:32;2.00;;;0.88;;
12760;SDS011;6444;49.742;6.114;2023-10-31T13:33:59;2.60;;;1.00;;
12760;SDS011;6444;49.742;6.114;2023-10-31T13:36:26;1.85;;;1.20;;
12760;SDS011;6444;49.742;6.114;2023-10-31T13:38:52;2.25;;;1.10;;
12760;SDS011;6444;49.742;6.114;2023-10-31T13:41:19;3.40;;;1.12;;
12760;SDS011;6444;49.742;6.114;2023-10-31T13:43:45;1.50;;;0.98;;
12760;SDS011;6444;49.742;6.114;2023-10-31T13:46:12;3.55;;;1.10;;
12760;SDS011;6444;49.742;6.114;2023-10-31T13:48:39;1.62;;;0.98;;
12760;SDS011;6444;49.742;6.114;2023-10-31T13:51:05;3.30;;;1.58;;
12760;SDS011;6444;49.742;6.114;2023-10-31T13:53:32;3.42;;;0.82;;
12760;SDS011;6444;49.742;6.114;2023-10-31T13:55:59;1.25;;;0.82;;
12760;SDS011;6444;49.742;6.114;2023-10-31T13:58:26;5.03;;;1.00;;
12760;SDS011;6444;49.742;6.114;2023-10-31T14:00:53;2.87;;;0.93;;
12760;SDS011;6444;49.742;6.114;2023-10-31T14:03:19;1.67;;;0.98;;
12760;SDS011;6444;49.742;6.114;2023-10-31T14:05:46;2.15;;;0.98;;
12760;SDS011;6444;49.742;6.114;2023-10-31T14:08:12;3.05;;;1.20;;
12760;SDS011;6444;49.742;6.114;2023-10-31T14:10:39;1.23;;;1.12;;
12760;SDS011;6444;49.742;6.114;2023-10-31T14:13:06;2.20;;;1.25;;
12760;SDS011;6444;49.742;6.114;2023-10-31T14:15:32;2.80;;;1.10;;
12760;SDS011;6444;49.742;6.114;2023-10-31T14:17:59;1.77;;;1.15;;
12760;SDS011;6444;49.742;6.114;2023-10-31T14:20:26;2.65;;;1.30;;
12760;SDS011;6444;49.742;6.114;2023-10-31T14:22:52;2.97;;;1.40;;
12760;SDS011;6444;49.742;6.114;2023-10-31T14:25:20;1.62;;;1.27;;
12760;SDS011;6444;49.742;6.114;2023-10-31T14:27:46;4.18;;;1.48;;
12760;SDS011;6444;49.742;6.114;2023-10-31T14:30:13;4.18;;;1.42;;
12760;SDS011;6444;49.742;6.114;2023-10-31T14:32:39;1.98;;;1.40;;
12760;SDS011;6444;49.742;6.114;2023-10-31T14:35:06;4.22;;;1.60;;
12760;SDS011;6444;49.742;6.114;2023-10-31T14:37:33;4.45;;;1.55;;
12760;SDS011;6444;49.742;6.114;2023-10-31T14:40:00;2.15;;;1.35;;
12760;SDS011;6444;49.742;6.114;2023-10-31T14:42:27;2.28;;;1.62;;
12760;SDS011;6444;49.742;6.114;2023-10-31T14:44:53;3.12;;;1.00;;
12760;SDS011;6444;49.742;6.114;2023-10-31T14:47:20;2.67;;;1.50;;
12760;SDS011;6444;49.742;6.114;2023-10-31T14:49:47;3.87;;;1.70;;
12760;SDS011;6444;49.742;6.114;2023-10-31T14:52:13;4.75;;;1.92;;
12760;SDS011;6444;49.742;6.114;2023-10-31T14:54:40;3.45;;;1.90;;
12760;SDS011;6444;49.742;6.114;2023-10-31T14:57:07;3.05;;;1.75;;
12760;SDS011;6444;49.742;6.114;2023-10-31T14:59:33;5.47;;;2.00;;
12760;SDS011;6444;49.742;6.114;2023-10-31T15:02:00;4.65;;;1.67;;